GW4420 Weather Reports


time (UTC)temp
C
wind
direction
speed
KPH
gust
KPH
rain 1hr
cm
rain 24hr
cm
rain mn
cm
humidity
%
barometer
mb
20240616045343 30 166 0.0 1.6 0.00 0.00 0.00 83 1013.7
20240616044841 28 178 1.6 3.2 0.00 0.00 0.00 86 1013.8
20240616044340 29 269 3.2 3.2 0.00 0.00 0.00 85 1013.9
20240616043838 30 325 4.8 4.8 0.00 0.00 0.00 82 1014.1
20240616043337 30 173 0.0 1.6 0.00 0.00 0.00 82 1014.4
20240616042836 30 200 0.0 0.0 0.00 0.00 0.00 82 1014.4
20240616042335 30 314 1.6 1.6 0.00 0.00 0.00 81 1014.3
20240616041833 30 157 1.6 1.6 0.00 0.00 0.00 82 1014.3
20240616041333 30 160 0.0 1.6 0.00 0.00 0.00 83 1014.4
20240616040831 28 151 0.0 1.6 0.00 0.00 0.00 86 1014.4
20240616040330 28 146 3.2 4.8 0.00 0.00 0.00 86 1013.8
20240616035830 27 145 1.6 3.2 0.00 0.00 0.00 87 1013.7
20240616035329 27 153 1.6 4.8 0.00 0.00 0.00 88 1013.9
20240616034827 27 167 0.0 3.2 0.00 0.00 0.00 90 1013.9
20240616034325 26 152 1.6 4.8 0.00 0.00 0.00 91 1014.0
20240616031117 26 128 1.6 6.4 0.00 0.00 0.00 94 1014.6
20240616030617 26 128 1.6 6.4 0.00 0.00 0.00 94 1014.6
20240616030116 26 128 1.6 6.4 0.00 0.00 0.00 94 1014.6
20240616025615 26 229 1.6 3.2 0.00 0.00 0.00 94 1014.5
20240616025112 26 166 4.8 6.4 0.00 0.00 0.00 94 1014.6
20240616024612 25 120 6.4 6.4 0.00 0.00 0.00 94 1014.6
20240616024111 26 160 4.8 12.9 0.00 0.00 0.00 94 1014.6
20240616023609 26 119 12.9 17.7 0.00 0.00 0.00 93 1015.0
20240616023109 28 159 3.2 3.2 0.00 0.00 0.00 93 1014.9
20240616022606 28 159 0.0 4.8 0.00 0.00 0.00 93 1014.6
20240616022105 28 355 1.6 3.2 0.00 0.00 0.00 93 1014.6
20240616021603 28 309 4.8 9.7 0.00 0.00 0.00 93 1014.6
20240616021103 28 284 6.4 11.3 0.00 0.00 0.00 93 1014.6
20240616020602 28 179 3.2 11.3 0.00 0.00 0.00 94 1014.7
20240616020101 28 312 6.4 9.7 0.00 0.00 0.00 94 1014.5
20240616015557 28 264 3.2 4.8 0.00 0.00 0.00 95 1014.5
20240616015057 28 39 3.2 6.4 0.00 0.00 0.00 95 1014.4
20240616014556 27 325 8.0 11.3 0.00 0.00 0.00 95 1014.6
20240616014055 27 311 6.4 11.3 0.00 0.00 0.00 95 1014.4
20240616013554 27 356 3.2 11.3 0.00 0.00 0.00 95 1014.5
20240616013054 27 217 3.2 9.7 0.00 0.00 0.00 95 1014.4
20240616012553 28 305 8.0 11.3 0.00 0.00 0.00 95 1014.5
20240616012053 27 322 3.2 11.3 0.00 0.00 0.00 95 1014.5
20240616011552 28 322 3.2 11.3 0.00 0.00 0.00 94 1014.5
20240616011052 28 242 1.6 4.8 0.00 0.00 0.00 94 1014.6
20240616010551 28 267 3.2 6.4 0.00 0.00 0.00 94 1014.6
20240616010050 28 312 3.2 6.4 0.00 0.00 0.00 94 1014.4
20240616005548 28 231 1.6 4.8 0.00 0.00 0.00 94 1014.3
20240616005047 28 284 3.2 4.8 0.00 0.00 0.00 94 1014.2
20240616004546 28 328 3.2 4.8 0.00 0.00 0.00 95 1014.5
20240616004045 27 216 1.6 6.4 0.00 0.00 0.00 96 1014.5
20240616003544 27 257 6.4 9.7 0.00 0.00 0.00 96 1013.9
20240616003042 27 292 3.2 6.4 0.00 0.00 0.00 97 1014.1
20240616002537 27 293 8.0 12.9 0.00 0.00 0.00 97 1014.1
20240616002037 27 294 8.0 14.5 0.00 0.00 0.00 97 1014.1
20240616001535 27 311 8.0 11.3 0.00 0.00 0.00 97 1014.2
20240616001034 27 314 6.4 9.7 0.00 0.00 0.00 97 1014.1
20240616000533 27 265 3.2 11.3 0.00 0.00 0.00 97 1014.2
20240616000032 27 134 4.8 12.9 0.00 0.00 0.00 98 1014.0
20240615235529 27 201 3.2 9.7 0.00 0.00 0.00 98 1014.1
20240615235027 27 273 4.8 14.5 0.00 0.00 0.00 98 1013.9
20240615234525 27 338 4.8 11.3 0.00 0.00 0.00 98 1013.9
20240615234023 27 329 3.2 9.7 0.00 0.00 0.00 98 1014.0
20240615233521 27 318 6.4 9.7 0.00 0.00 0.00 98 1014.0
20240615233021 27 278 3.2 6.4 0.00 0.00 0.00 98 1013.9
20240615232520 27 61 3.2 6.4 0.00 0.00 0.00 98 1014.1
20240615232018 27 13 3.2 11.3 0.00 0.00 0.00 98 1013.9
20240615231516 27 297 6.4 11.3 0.00 0.00 0.00 98 1013.6
20240615231013 27 299 9.7 12.9 0.00 0.00 0.00 98 1013.6
20240615230513 27 306 6.4 9.7 0.00 0.00 0.00 98 1013.8
20240615230011 26 275 4.8 9.7 0.00 0.00 0.00 99 1013.7
20240615225509 26 314 8.0 14.5 0.00 0.00 0.00 99 1013.9
20240615225008 26 325 4.8 9.7 0.00 0.00 0.00 99 1013.5
20240615224508 26 106 3.2 14.5 0.00 0.00 0.00 99 1013.4
20240615224006 26 55 6.4 20.9 0.00 0.00 0.00 99 1013.5
20240615223506 26 289 9.7 17.7 0.00 0.00 0.00 99 1013.1
20240615223004 26 315 3.2 9.7 0.00 0.00 0.00 99 1013.3
20240615222502 26 43 8.0 14.5 0.00 0.00 0.00 99 1013.3
20240615222000 26 336 6.4 14.5 0.00 0.00 0.00 99 1013.1
20240615221500 26 59 1.6 3.2 0.00 0.00 0.00 99 1013.2
20240615221000 26 347 6.4 9.7 0.00 0.00 0.00 99 1013.2
20240615220458 26 316 9.7 12.9 0.00 0.00 0.00 99 1013.2
20240615215955 26 294 4.8 9.7 0.00 0.00 0.00 99 1013.1
20240615215451 26 99 3.2 12.9 0.00 0.00 0.00 99 1013.3
20240615214950 26 13 6.4 12.9 0.00 0.00 0.00 98 1013.3
20240615214450 26 242 3.2 11.3 0.00 0.00 0.00 98 1013.0
20240615213948 26 311 6.4 14.5 0.00 0.00 0.00 98 1013.0
20240615213445 26 322 3.2 9.7 0.00 0.00 0.00 98 1013.2
20240615212931 27 290 3.2 12.9 0.00 0.00 0.00 98 1012.8
20240615212421 27 318 8.0 12.9 0.00 0.00 0.00 98 1012.9
20240615211919 27 283 9.7 17.7 0.00 0.00 0.00 98 1012.9
20240615211352 27 230 1.6 11.3 0.00 0.00 0.00 98 1012.7
20240615210851 27 330 4.8 11.3 0.00 0.00 0.00 98 1012.6
20240615210349 27 285 3.2 6.4 0.00 0.00 0.00 98 1012.5
20240615205848 27 151 3.2 11.3 0.00 0.00 0.00 98 1012.7
20240615205347 27 284 12.9 16.1 0.00 0.00 0.00 98 1012.5
20240615204846 27 245 6.4 16.1 0.00 0.00 0.00 98 1012.5
20240615204322 27 306 8.0 11.3 0.00 0.00 0.00 98 1012.6
20240615203820 27 280 6.4 6.4 0.00 0.00 0.00 97 1012.6
20240615203318 27 251 3.2 12.9 0.00 0.00 0.00 97 1012.4
20240615202816 27 333 4.8 12.9 0.00 0.00 0.00 97 1012.7
20240615202315 27 356 4.8 11.3 0.00 0.00 0.00 97 1012.3
20240615201813 27 151 1.6 3.2 0.00 0.00 0.00 97 1012.4
20240615201311 27 303 4.8 4.8 0.00 0.00 0.00 97 1012.3
20240615200810 27 298 1.6 6.4 0.00 0.00 0.00 97 1012.4
20240615200306 27 255 1.6 11.3 0.00 0.00 0.00 96 1012.4
20240615195800 27 108 3.2 4.8 0.00 0.00 0.00 96 1012.0
20240615195257 27 237 1.6 3.2 0.00 0.00 0.00 96 1012.1
20240615194755 27 251 3.2 4.8 0.00 0.00 0.00 95 1012.1
20240615194252 27 304 3.2 4.8 0.00 0.00 0.00 95 1012.4
20240615193750 27 206 3.2 11.3 0.00 0.00 0.00 94 1012.3
20240615193248 27 282 3.2 4.8 0.00 0.00 0.00 94 1012.2
20240615192745 27 232 3.2 4.8 0.00 0.00 0.00 93 1012.3
20240615192245 27 300 4.8 6.4 0.00 0.00 0.00 92 1012.4
20240615191744 27 165 0.0 3.2 0.00 0.00 0.00 92 1012.2
20240615191243 27 321 3.2 6.4 0.00 0.00 0.00 92 1012.2
20240615190743 27 203 0.0 4.8 0.00 0.00 0.00 92 1012.1
20240615190242 27 263 6.4 12.9 0.00 0.00 0.00 92 1012.2
20240615185642 26 39 1.6 4.8 0.00 0.00 0.00 91 1012.3
20240615185141 26 330 6.4 9.7 0.00 0.00 0.00 91 1012.2
20240615184641 27 286 3.2 4.8 0.00 0.00 0.00 92 1012.4
20240615184140 26 349 3.2 4.8 0.00 0.00 0.00 92 1012.4
20240615183638 26 274 0.0 3.2 0.00 0.00 0.00 92 1012.3
20240615183136 26 176 0.0 0.0 0.00 0.00 0.00 92 1012.2
20240615182633 26 247 1.6 4.8 0.00 0.00 0.00 92 1012.0
20240615182132 26 176 0.0 1.6 0.00 0.00 0.00 92 1012.2
20240615181631 26 144 1.6 1.6 0.00 0.00 0.00 91 1012.2
20240615181128 26 4 1.6 3.2 0.00 0.00 0.00 91 1011.9
20240615180627 26 173 1.6 3.2 0.00 0.00 0.00 91 1011.8
20240615180125 26 220 4.8 6.4 0.00 0.00 0.00 91 1011.9
20240615175625 26 195 1.6 1.6 0.00 0.00 0.00 91 1011.8
20240615175122 26 166 0.0 1.6 0.00 0.00 0.00 91 1011.8
20240615174621 26 172 1.6 1.6 0.00 0.00 0.00 90 1011.5
20240615174120 26 179 0.0 1.6 0.00 0.00 0.00 90 1011.6
20240615173618 26 193 0.0 1.6 0.00 0.00 0.00 90 1011.4
20240615173118 26 216 1.6 4.8 0.00 0.00 0.00 90 1011.2
20240615172616 26 314 3.2 6.4 0.00 0.00 0.00 91 1011.4
20240615172114 26 177 0.0 1.6 0.00 0.00 0.00 91 1011.4
20240615171613 26 174 1.6 3.2 0.00 0.00 0.00 91 1011.4
20240615171112 26 213 0.0 1.6 0.00 0.00 0.00 92 1011.3
20240615170611 26 174 0.0 3.2 0.00 0.00 0.00 93 1011.2
20240615170111 26 154 0.0 0.0 0.00 0.00 0.00 94 1011.3
20240615165608 26 204 1.6 1.6 0.00 0.00 0.00 94 1011.3
20240615165106 26 177 0.0 1.6 0.00 0.00 0.00 94 1011.3
20240615164604 26 214 1.6 3.2 0.00 0.00 0.00 93 1011.2
20240615164102 26 171 0.0 1.6 0.00 0.00 0.00 94 1011.4
20240615163538 26 176 0.0 3.2 0.00 0.00 0.00 94 1011.3
20240615163036 26 356 1.6 4.8 0.00 0.00 0.00 94 1011.3
20240615162536 26 157 0.0 1.6 0.00 0.00 0.00 94 1011.3
20240615162035 26 322 1.6 1.6 0.00 0.00 0.00 94 1011.3
20240615161533 26 176 1.6 1.6 0.00 0.00 0.00 94 1011.2
20240615161033 26 157 1.6 1.6 0.00 0.00 0.00 94 1011.3
20240615160531 26 177 3.2 3.2 0.00 0.00 0.00 94 1011.3
20240615160030 26 350 3.2 3.2 0.00 0.00 0.00 94 1011.3
20240615155530 26 240 1.6 3.2 0.00 0.00 0.00 93 1011.3
20240615155028 26 187 0.0 1.6 0.00 0.00 0.00 93 1011.5
20240615154525 26 309 3.2 4.8 0.00 0.00 0.00 93 1011.2
20240615154023 26 317 1.6 4.8 0.00 0.00 0.00 93 1011.6
20240615153523 26 176 1.6 3.2 0.00 0.00 0.00 94 1011.9
20240615153021 26 299 3.2 6.4 0.00 0.00 0.00 94 1011.6
20240615152521 26 178 1.6 6.4 0.00 0.00 0.00 95 1011.8
20240615152020 26 226 0.0 1.6 0.00 0.00 0.00 95 1011.9
20240615151518 26 332 4.8 9.7 0.00 0.00 0.00 96 1012.0
20240615151017 26 245 1.6 3.2 0.00 0.00 0.00 96 1011.8
20240615150516 26 338 3.2 12.9 0.00 0.00 0.00 96 1011.9
20240615150016 26 277 6.4 11.3 0.00 0.00 0.00 96 1012.0
20240615145513 26 167 1.6 3.2 0.00 4.19 4.19 96 1012.1
20240615145012 26 229 3.2 11.3 0.00 4.19 4.19 96 1012.2
20240615144511 26 308 3.2 4.8 0.00 4.19 4.19 96 1012.1
20240615144009 26 298 3.2 4.8 0.00 4.19 4.19 96 1012.4
20240615143509 26 82 0.0 3.2 0.00 4.19 4.19 96 1012.3
20240615143003 26 118 0.0 3.2 0.00 4.19 4.19 96 1012.5
20240615142502 26 25 1.6 3.2 0.00 4.19 4.19 96 1012.4
20240615142000 26 186 1.6 1.6 0.00 4.19 4.19 96 1012.7
20240615141459 26 3 1.6 6.4 0.00 4.19 4.19 96 1012.6
20240615140958 26 290 3.2 3.2 0.00 4.19 4.19 97 1012.5
20240615140456 26 284 1.6 9.7 0.00 4.19 4.19 97 1012.7
20240615135954 26 269 1.6 6.4 0.00 4.19 4.19 97 1012.8
20240615135451 26 342 3.2 6.4 0.00 4.19 4.19 97 1012.6
20240615134942 26 324 4.8 4.8 0.00 4.19 4.19 97 1012.6
20240615134437 26 295 3.2 6.4 0.00 4.19 4.19 98 1012.9
20240615133936 26 102 1.6 4.8 0.00 4.19 4.19 98 1012.7
20240615133434 25 201 1.6 4.8 0.10 4.19 4.19 98 1012.8
20240615132932 25 182 0.0 1.6 0.10 4.19 4.19 98 1012.6
20240615132431 25 195 1.6 3.2 0.00 4.17 4.17 98 1012.7
20240615131929 25 170 0.0 1.6 0.00 4.17 4.17 98 1012.5
20240615131427 25 189 0.0 1.6 0.00 4.17 4.17 98 1012.5
20240615130925 25 247 1.6 1.6 0.18 4.17 4.17 98 1012.7
20240615130425 25 298 3.2 6.4 0.46 4.17 4.17 98 1012.7
20240615125922 25 160 0.0 1.6 0.41 4.14 4.14 98 1012.9
20240615125421 25 232 1.6 3.2 0.28 4.09 4.09 98 1012.7
20240615124920 25 296 3.2 3.2 0.18 4.06 4.06 98 1012.8
20240615124420 25 131 0.0 1.6 0.00 4.04 4.04 98 1013.0
20240615123919 25 355 3.2 3.2 0.00 4.04 4.04 98 1013.1
20240615123419 25 225 3.2 4.8 0.18 4.04 4.04 98 1012.8
20240615122917 25 244 1.6 3.2 0.00 3.99 3.99 98 1012.8
20240615122416 25 309 8.0 9.7 0.41 3.99 3.99 98 1013.1
20240615121916 25 311 6.4 9.7 0.58 3.99 3.99 98 1012.9
20240615121415 25 42 4.8 6.4 0.28 3.94 3.94 98 1012.8
20240615120914 25 159 1.6 4.8 0.18 3.89 3.89 98 1012.7
20240615120412 25 358 3.2 6.4 1.68 3.89 3.89 98 1012.7
20240615115910 25 290 8.0 14.5 2.69 3.86 3.86 98 1012.7
20240615115410 25 336 4.8 6.4 3.17 3.71 3.71 98 1012.7
20240615114908 25 286 1.6 1.6 2.74 3.38 3.38 98 1012.6
20240615114407 25 306 4.8 6.4 3.76 3.15 3.15 98 1012.9
20240615113905 25 343 1.6 3.2 5.82 2.90 2.90 97 1012.9
20240615113405 25 176 3.2 3.2 6.71 2.49 2.49 97 1012.8
20240615112903 25 184 3.2 12.9 4.01 1.80 1.80 96 1013.0
20240615112402 26 186 1.6 4.8 1.24 1.35 1.35 93 1012.4
20240615111900 27 148 3.2 4.8 0.00 1.12 1.12 91 1011.9
20240615111400 28 310 11.3 17.7 0.00 1.12 1.12 93 1011.1
20240615110858 28 294 9.7 17.7 0.00 1.12 1.12 93 1010.9
20240615110358 28 295 12.9 24.1 0.00 1.12 1.12 93 1011.3
20240615105855 28 350 9.7 22.5 0.00 1.12 1.12 93 1011.3
20240615105353 28 332 8.0 14.5 0.00 1.12 1.12 93 1011.0
20240615104851 28 329 9.7 14.5 0.00 1.12 1.12 93 1011.1
20240615104350 28 317 12.9 17.7 0.00 1.12 1.12 92 1011.1
20240615103849 28 329 6.4 20.9 0.00 1.12 1.12 92 1011.0
20240615103349 28 8 9.7 17.7 0.00 1.12 1.12 92 1011.1
20240615102847 28 305 8.0 14.5 0.00 1.12 1.12 93 1011.1
20240615102346 28 306 9.7 16.1 0.00 1.12 1.12 92 1010.9
20240615101846 28 57 11.3 16.1 0.00 1.12 1.12 92 1010.9
20240615101345 28 310 9.7 16.1 0.00 1.12 1.12 92 1010.8
20240615100843 28 277 6.4 25.7 0.00 1.12 1.12 92 1010.5
20240615100341 28 303 9.7 17.7 0.00 1.12 1.12 92 1010.4
20240615095841 28 348 9.7 20.9 0.00 1.12 1.12 92 1010.4
20240615095339 28 282 4.8 24.1 0.00 1.12 1.12 92 1010.2
20240615094838 28 350 19.3 24.1 0.00 1.12 1.12 91 1010.0
20240615094337 28 327 8.0 20.9 0.00 1.12 1.12 91 1010.1
20240615093836 28 293 11.3 22.5 0.00 1.12 1.12 91 1009.7
20240615093336 28 36 8.0 27.4 0.00 1.12 1.12 91 1009.9
20240615092834 28 7 11.3 22.5 0.00 1.12 1.12 91 1009.5
20240615092333 28 282 12.9 20.9 0.00 1.12 1.12 91 1009.4
20240615091831 28 324 17.7 27.4 0.00 1.12 1.12 91 1009.4
20240615091330 28 293 14.5 22.5 0.00 1.12 1.12 91 1009.6
20240615090828 28 305 19.3 27.4 0.00 1.12 1.12 91 1009.6
20240615090327 28 325 19.3 27.4 0.00 1.12 1.12 91 1009.4
20240615085824 28 10 6.4 14.5 0.00 1.12 1.12 91 1009.4
20240615085323 28 317 16.1 25.7 0.00 1.12 1.12 91 1009.6
20240615084821 28 226 14.5 25.7 0.00 1.12 1.12 91 1009.8
20240615084320 28 272 19.3 25.7 0.00 1.12 1.12 91 1009.7
20240615083819 28 246 9.7 22.5 0.00 1.12 1.12 91 1009.5
20240615083320 28 314 8.0 25.7 0.00 1.12 1.12 91 1009.6
20240615082815 28 297 14.5 24.1 0.00 1.12 1.12 91 1009.6
20240615082314 28 4 11.3 27.4 0.00 1.12 1.12 92 1009.6
20240615081812 28 301 20.9 25.7 0.00 1.12 1.12 92 1009.5
20240615081310 28 353 9.7 14.5 0.00 1.12 1.12 92 1009.6
20240615080809 28 281 17.7 20.9 0.00 1.12 1.12 92 1009.8
20240615080308 28 318 11.3 25.7 0.00 1.12 1.12 92 1009.8
20240615075806 28 330 14.5 17.7 0.00 1.12 1.12 92 1009.3
20240615075306 28 302 19.3 29.0 0.00 1.12 1.12 92 1009.5
20240615074803 28 317 9.7 22.5 0.00 1.12 1.12 92 1009.2
20240615074301 28 284 9.7 20.9 0.00 1.12 1.12 92 1009.3
20240615073800 28 345 8.0 25.7 0.00 1.12 1.12 92 1009.1
20240615073258 28 270 4.8 14.5 0.00 1.12 1.12 92 1009.3
20240615072757 28 285 16.1 24.1 0.00 1.12 1.12 92 1009.4
20240615072256 28 320 12.9 24.1 0.00 1.12 1.12 92 1009.3
20240615071754 28 339 9.7 17.7 0.00 1.12 1.12 91 1009.3
20240615071252 28 319 6.4 14.5 0.00 1.12 1.12 91 1009.2
20240615070750 28 329 9.7 17.7 0.00 1.12 1.12 90 1008.9
20240615070249 28 306 12.9 25.7 0.00 1.12 1.12 90 1009.3
20240615065748 28 296 11.3 17.7 0.00 1.12 1.12 90 1009.3
20240615065248 28 287 14.5 22.5 0.00 1.12 1.12 90 1009.5
20240615064746 28 352 11.3 20.9 0.00 1.12 1.12 90 1009.4
20240615064245 28 322 14.5 25.7 0.00 1.12 1.12 90 1009.5
20240615063743 28 301 6.4 22.5 0.00 1.12 1.12 90 1009.7
20240615063242 28 306 14.5 24.1 0.00 1.12 1.12 89 1009.7
20240615062741 28 277 9.7 16.1 0.00 1.12 1.12 89 1009.5
20240615062240 28 311 9.7 22.5 0.00 1.12 1.12 89 1009.6
20240615061739 28 303 17.7 22.5 0.00 1.12 1.12 89 1009.7
20240615061239 28 262 16.1 22.5 0.00 1.12 1.12 89 1009.7
20240615060737 28 326 14.5 25.7 0.00 1.12 1.12 89 1009.7
20240615060235 28 208 4.8 12.9 0.00 1.12 1.12 89 1009.6
20240615055733 28 10 12.9 29.0 0.00 1.12 1.12 89 1009.7
20240615055232 28 270 16.1 24.1 0.00 1.12 1.12 89 1009.8
20240615054732 28 331 19.3 30.6 0.00 1.12 1.12 89 1009.7
20240615054230 28 324 17.7 25.7 0.00 1.12 1.12 89 1009.8
20240615053729 28 254 9.7 22.5 0.00 1.12 1.12 89 1009.9
20240615053228 28 292 17.7 30.6 0.00 1.12 1.12 89 1009.8
20240615052726 28 287 8.0 29.0 0.00 1.12 1.12 89 1009.8
20240615052225 28 280 9.7 24.1 0.00 1.12 1.12 89 1009.8
20240615051724 28 343 9.7 22.5 0.00 1.12 1.12 89 1009.6
20240615051222 28 282 16.1 29.0 0.00 1.12 1.12 90 1009.7
20240615050720 28 316 17.7 25.7 0.00 1.12 1.12 90 1009.7
20240615050219 28 298 11.3 20.9 0.00 1.12 1.12 90 1010.0
20240615045717 28 292 11.3 27.4 0.00 1.12 1.12 90 1009.9